Time;durP1;ratioP1;P1;durP2;ratioP2;P2;SDS_P1;SDS_P2;PMS_P1;PMS_P2;Temp;Humidity;BMP_temperature;BMP_pressure;BME280_temperature;BME280_humidity;BME280_pressure;Samples;Min_cycle;Max_cycle;Signal;HPM_P1;HPM_P2
2023/05/23 00:00:15;;;;;;;;;14.80;14.00;;;;;16.98;46.11;99058.28;5068812;28;8846;-80
2023/05/23 00:03:04;;;;;;;;;17.60;17.00;;;;;16.99;46.28;99056.50;5039030;28;8854;-81
2023/05/23 00:05:33;;;;;;;;;20.25;18.75;;;;;17.01;46.22;99057.25;5068894;28;8834;-80
2023/05/23 00:08:02;;;;;;;;;19.00;18.00;;;;;16.88;46.59;99062.38;5069686;28;9076;-80
2023/05/23 00:10:31;;;;;;;;;21.25;20.25;;;;;16.79;47.31;99055.75;5054657;28;8954;-79
2023/05/23 00:12:59;;;;;;;;;15.25;15.25;;;;;16.51;47.75;99061.75;5014713;28;8879;-79
2023/05/23 00:15:30;;;;;;;;;18.25;17.25;;;;;16.68;47.28;99059.94;5050052;28;8930;-79
2023/05/23 00:17:59;;;;;;;;;24.00;23.00;;;;;16.85;46.96;99064.34;5049938;28;8936;-79
2023/05/23 00:20:29;;;;;;;;;23.00;22.00;;;;;16.91;47.03;99066.66;5055314;28;8837;-81
2023/05/23 00:22:58;;;;;;;;;24.00;24.00;;;;;16.95;47.06;99062.91;5067717;28;8920;-79
2023/05/23 00:25:32;;;;;;;;;23.50;19.75;;;;;17.07;46.66;99056.91;5068395;28;8932;-79
2023/05/23 00:28:02;;;;;;;;;23.25;20.75;;;;;17.12;46.24;99062.84;5068224;28;9576;-78
2023/05/23 00:30:33;;;;;;;;;22.00;20.75;;;;;17.08;46.46;99063.06;5068244;28;8862;-80
2023/05/23 00:33:02;;;;;;;;;21.40;19.80;;;;;16.90;47.13;99071.13;5051272;28;8850;-80
2023/05/23 00:35:31;;;;;;;;;28.75;25.75;;;;;16.89;47.22;99065.88;5012921;28;8849;-80
2023/05/23 00:38:01;;;;;;;;;23.67;23.67;;;;;17.03;46.97;99067.81;5031182;28;8865;-79
2023/05/23 00:40:30;;;;;;;;;21.00;20.75;;;;;17.11;46.95;99066.41;5049553;28;8860;-80
2023/05/23 00:42:58;;;;;;;;;19.40;19.40;;;;;17.14;46.92;99065.41;5064940;28;8886;-79
2023/05/23 00:45:27;;;;;;;;;22.75;21.75;;;;;17.20;46.76;99062.41;5068493;28;8869;-80
2023/05/23 00:47:59;;;;;;;;;21.50;21.25;;;;;17.26;46.78;99059.41;5069631;28;8839;-79
2023/05/23 00:50:29;;;;;;;;;24.00;21.50;;;;;17.26;46.55;99067.41;5019190;28;8854;-80
2023/05/23 00:53:01;;;;;;;;;23.00;23.00;;;;;17.32;46.26;99066.19;5067254;28;8866;-80
2023/05/23 00:55:31;;;;;;;;;21.20;21.20;;;;;17.32;46.29;99066.19;5051149;28;8834;-80
2023/05/23 00:58:00;;;;;;;;;14.60;14.60;;;;;17.19;46.06;99065.97;5067854;28;8846;-80
2023/05/23 01:00:30;;;;;;;;;18.80;18.80;;;;;17.12;46.23;99072.59;5068940;28;8873;-80
2023/05/23 01:03:01;;;;;;;;;21.40;18.40;;;;;17.09;46.51;99067.44;5067761;28;8847;-80
2023/05/23 01:05:30;;;;;;;;;16.20;16.20;;;;;17.00;46.83;99064.38;5051040;28;9560;-79
2023/05/23 01:08:02;;;;;;;;;20.60;18.40;;;;;17.08;46.52;99066.59;5064909;28;8872;-79
2023/05/23 01:10:31;;;;;;;;;17.20;16.40;;;;;17.14;46.26;99074.22;5032956;28;8860;-79
2023/05/23 01:13:13;;;;;;;;;17.40;17.40;;;;;17.28;46.12;99072.63;5025556;28;8846;-79
2023/05/23 01:15:48;;;;;;;;;20.80;19.40;;;;;17.25;46.35;99067.44;5009708;28;8857;-79
2023/05/23 01:18:26;;;;;;;;;18.00;16.00;;;;;17.33;46.29;99062.59;5009663;28;9607;-79
2023/05/23 01:20:59;;;;;;;;;18.80;16.80;;;;;17.27;46.25;99058.50;5009978;28;8838;-81
2023/05/23 01:24:08;;;;;;;;;22.00;20.20;;;;;17.48;45.53;99060.88;5010458;28;8868;-79
2023/05/23 01:26:51;;;;;;;;;22.00;19.00;;;;;17.39;46.30;99056.94;5015155;28;8857;-80
2023/05/23 01:29:26;;;;;;;;;17.50;16.25;;;;;17.31;46.18;99064.50;5010270;28;8850;-79
2023/05/23 01:31:58;;;;;;;;;15.20;13.40;;;;;17.25;45.66;99065.69;5005227;28;8869;-80
2023/05/23 01:34:28;;;;;;;;;16.00;16.00;;;;;17.24;45.51;99063.09;5006720;28;8989;-81
2023/05/23 01:36:57;;;;;;;;;20.60;19.40;;;;;17.26;45.91;99063.88;5005392;28;8961;-80
2023/05/23 01:39:26;;;;;;;;;18.40;18.40;;;;;17.25;45.69;99068.34;5017996;28;8931;-81
2023/05/23 01:41:55;;;;;;;;;21.75;21.50;;;;;17.26;45.77;99066.53;5045904;28;8958;-80
2023/05/23 01:44:26;;;;;;;;;20.75;20.75;;;;;17.25;45.85;99073.66;5022125;28;8979;-80
2023/05/23 01:46:56;;;;;;;;;16.00;15.80;;;;;17.07;46.13;99077.31;5058034;28;8862;-80
2023/05/23 01:49:26;;;;;;;;;19.00;18.80;;;;;17.09;46.27;99070.97;5055713;28;8865;-80
2023/05/23 01:51:55;;;;;;;;;16.80;16.20;;;;;17.13;46.07;99077.81;5046975;28;8873;-80
2023/05/23 01:54:25;;;;;;;;;20.20;19.20;;;;;17.20;46.01;99073.88;5063107;28;8887;-79
2023/05/23 01:56:54;;;;;;;;;22.40;22.00;;;;;17.22;46.45;99080.91;5047528;28;9706;-80
2023/05/23 01:59:23;;;;;;;;;19.40;18.20;;;;;17.26;45.93;99080.66;5066725;28;8846;-81
2023/05/23 02:01:53;;;;;;;;;22.00;22.00;;;;;17.25;46.31;99086.03;5050161;28;9003;-80
2023/05/23 02:04:22;;;;;;;;;23.75;22.75;;;;;17.26;46.44;99079.81;5066834;28;8873;-80
2023/05/23 02:06:52;;;;;;;;;18.00;18.00;;;;;17.23;46.28;99079.94;5033569;28;8848;-80
2023/05/23 02:09:21;;;;;;;;;22.40;20.00;;;;;17.20;46.25;99076.53;5048950;28;8887;-78
2023/05/23 02:11:50;;;;;;;;;16.20;16.20;;;;;17.21;46.36;99074.72;5046890;28;8881;-80
2023/05/23 02:14:19;;;;;;;;;24.00;22.25;;;;;17.23;46.27;99077.28;4990207;28;8940;-79
2023/05/23 02:16:48;;;;;;;;;21.00;21.00;;;;;17.23;46.28;99078.19;5068267;28;8854;-79
2023/05/23 02:19:18;;;;;;;;;24.25;23.75;;;;;17.15;46.76;99075.06;5066167;28;8881;-79
2023/05/23 02:21:47;;;;;;;;;21.60;20.00;;;;;17.08;46.86;99076.34;5066340;28;8975;-80
2023/05/23 02:24:16;;;;;;;;;23.25;21.50;;;;;17.07;46.94;99078.16;5066303;28;8917;-80
2023/05/23 02:26:46;;;;;;;;;20.25;19.25;;;;;17.07;46.98;99083.47;5069069;28;8858;-80
2023/05/23 02:29:15;;;;;;;;;21.50;21.25;;;;;16.80;47.60;99080.53;5055457;28;8862;-79
2023/05/23 02:31:44;;;;;;;;;20.00;18.60;;;;;16.89;47.40;99082.69;5068311;28;8949;-80
2023/05/23 02:34:13;;;;;;;;;21.00;19.75;;;;;16.92;47.44;99079.84;5066424;28;8854;-82
2023/05/23 02:36:43;;;;;;;;;22.00;21.50;;;;;16.96;47.17;99075.22;5050082;28;8882;-81
2023/05/23 02:39:12;;;;;;;;;25.00;25.00;;;;;16.95;47.51;99077.03;5049911;28;8985;-80
2023/05/23 02:41:41;;;;;;;;;23.00;22.50;;;;;16.81;47.43;99082.22;5051095;28;8978;-79
2023/05/23 02:44:10;;;;;;;;;24.25;22.50;;;;;16.77;47.94;99083.34;5067534;28;9604;-81
2023/05/23 02:46:39;;;;;;;;;22.25;21.50;;;;;16.60;48.13;99081.59;5051395;28;8850;-80
2023/05/23 02:49:08;;;;;;;;;19.20;19.20;;;;;16.59;47.89;99087.84;5087109;28;8942;-80
2023/05/23 02:51:37;;;;;;;;;24.75;22.75;;;;;16.54;48.30;99089.88;5018257;28;8846;-80
2023/05/23 02:54:07;;;;;;;;;21.00;21.00;;;;;16.57;48.17;99081.78;5015324;28;9618;-80
2023/05/23 02:56:38;;;;;;;;;22.75;21.50;;;;;16.57;48.18;99079.97;5065033;28;8887;-80
2023/05/23 02:59:07;;;;;;;;;21.00;20.25;;;;;16.58;48.25;99076.38;5030670;28;9050;-80
2023/05/23 03:01:36;;;;;;;;;24.50;21.50;;;;;16.59;48.24;99071.94;5064845;28;8921;-79
2023/05/23 03:04:05;;;;;;;;;26.00;24.25;;;;;16.56;48.44;99067.63;5048190;28;8882;-82
2023/05/23 03:06:35;;;;;;;;;21.25;19.25;;;;;16.58;48.35;99071.06;5031886;28;8859;-80
2023/05/23 03:09:04;;;;;;;;;23.25;23.00;;;;;16.56;48.10;99069.44;5064849;28;8898;-80
2023/05/23 03:11:35;;;;;;;;;20.75;20.00;;;;;16.58;47.94;99068.41;5037253;28;8844;-81
2023/05/23 03:14:04;;;;;;;;;21.20;19.20;;;;;16.50;47.96;99062.66;5072421;28;10086;-81
2023/05/23 03:16:33;;;;;;;;;21.40;20.60;;;;;16.55;47.81;99059.75;5048815;28;8840;-80
2023/05/23 03:19:01;;;;;;;;;20.75;20.50;;;;;16.56;48.07;99067.63;5046864;28;8863;-81
2023/05/23 03:21:33;;;;;;;;;54.25;43.50;;;;;16.55;48.33;99062.41;5031595;28;8977;-80
2023/05/23 03:24:02;;;;;;;;;44.00;38.25;;;;;16.60;48.31;99065.69;5047806;28;8941;-80
2023/05/23 03:26:31;;;;;;;;;44.00;38.25;;;;;16.63;48.12;99062.03;5048821;28;8882;-81
2023/05/23 03:29:01;;;;;;;;;26.25;23.50;;;;;16.67;48.19;99067.06;5049447;28;8846;-79
2023/05/23 03:31:30;;;;;;;;;24.25;24.25;;;;;16.72;48.07;99067.69;5065667;28;8927;-81
2023/05/23 03:33:59;;;;;;;;;21.60;21.60;;;;;16.66;48.31;99068.00;5047910;28;8858;-81
2023/05/23 03:36:28;;;;;;;;;23.00;23.00;;;;;16.56;48.25;99066.78;5066184;28;8924;-81
2023/05/23 03:38:56;;;;;;;;;20.50;19.75;;;;;16.60;48.44;99068.31;5052462;28;8885;-80
2023/05/23 03:41:26;;;;;;;;;21.75;21.00;;;;;16.65;48.27;99071.59;5069305;28;8955;-81
2023/05/23 03:43:55;;;;;;;;;65.33;53.00;;;;;16.49;48.53;99070.69;5052490;28;8976;-81
2023/05/23 03:46:27;;;;;;;;;20.25;20.25;;;;;16.37;48.63;99073.03;5067711;28;9499;-81
2023/05/23 03:48:55;;;;;;;;;17.20;17.20;;;;;16.00;49.57;99069.66;5046965;28;8880;-82
2023/05/23 03:51:25;;;;;;;;;20.20;16.80;;;;;15.96;49.77;99068.09;5047273;28;8857;-81
2023/05/23 03:53:53;;;;;;;;;19.40;17.60;;;;;16.05;49.65;99079.16;5002150;28;8860;-80
2023/05/23 03:56:22;;;;;;;;;20.40;20.40;;;;;16.20;49.20;99073.06;5051016;28;8851;-81
2023/05/23 03:58:51;;;;;;;;;20.20;18.80;;;;;16.25;49.06;99062.19;5067107;28;8864;-79
2023/05/23 04:01:20;;;;;;;;;18.60;18.60;;;;;16.39;48.88;99065.00;5034395;28;8882;-79
2023/05/23 04:03:51;;;;;;;;;29.75;28.75;;;;;16.48;48.54;99072.50;5050754;28;9006;-81
2023/05/23 04:06:22;;;;;;;;;34.00;31.25;;;;;16.57;48.19;99068.50;5048372;28;8844;-80
2023/05/23 04:08:51;;;;;;;;;19.80;19.80;;;;;16.37;48.70;99070.38;5030468;28;8937;-81
2023/05/23 04:11:21;;;;;;;;;24.50;24.50;;;;;16.10;49.47;99080.63;5014045;28;8871;-81
2023/05/23 04:13:52;;;;;;;;;19.00;19.00;;;;;16.29;49.06;99077.88;5035719;28;8871;-80
2023/05/23 04:16:22;;;;;;;;;19.20;17.60;;;;;16.43;48.65;99078.00;5016679;28;8945;-81
2023/05/23 04:18:53;;;;;;;;;20.00;16.60;;;;;16.41;48.79;99079.88;5048522;28;8868;-80
2023/05/23 04:21:22;;;;;;;;;42.50;36.25;;;;;16.46;48.74;99077.03;5046735;28;8868;-80
2023/05/23 04:24:01;;;;;;;;;22.20;19.40;;;;;16.49;48.64;99083.97;5029338;28;8849;-80
2023/05/23 04:26:31;;;;;;;;;30.25;28.50;;;;;16.58;48.67;99080.81;5030062;28;8961;-79
2023/05/23 04:29:00;;;;;;;;;33.00;29.50;;;;;16.77;48.26;99075.38;5037147;28;8867;-80
2023/05/23 04:31:29;;;;;;;;;15.40;15.40;;;;;16.79;48.01;99078.81;5010452;28;8871;-79
2023/05/23 04:34:01;;;;;;;;;21.40;21.20;;;;;16.65;48.42;99087.53;5010014;28;9570;-80
2023/05/23 04:36:31;;;;;;;;;23.75;23.75;;;;;16.72;48.55;99080.97;5010023;28;8887;-80
2023/05/23 04:39:00;;;;;;;;;19.00;17.60;;;;;16.92;47.86;99079.84;5029347;28;8856;-82
2023/05/23 04:41:35;;;;;;;;;17.60;17.60;;;;;16.91;47.68;99079.94;5009719;28;8861;-79
2023/05/23 04:44:10;;;;;;;;;17.60;16.60;;;;;16.93;47.83;99078.94;5021189;28;9008;-81
2023/05/23 04:46:44;;;;;;;;;22.75;20.25;;;;;17.01;47.62;99075.84;4982189;28;8853;-81
2023/05/23 04:49:24;;;;;;;;;19.00;17.20;;;;;17.17;47.48;99073.19;5013136;28;8907;-81
2023/05/23 04:51:54;;;;;;;;;18.40;17.80;;;;;17.21;47.37;99066.75;5013221;28;8848;-79
2023/05/23 04:54:28;;;;;;;;;18.20;18.20;;;;;17.46;46.90;99074.25;5029470;28;8970;-80
2023/05/23 04:56:59;;;;;;;;;16.40;16.40;;;;;17.61;46.38;99074.28;5028716;28;8959;-80
2023/05/23 04:59:30;;;;;;;;;16.80;15.20;;;;;17.58;46.18;99092.13;5063087;28;8862;-80
2023/05/23 05:02:00;;;;;;;;;19.00;19.00;;;;;17.72;45.75;99087.81;5067341;28;8854;-79
2023/05/23 05:04:31;;;;;;;;;20.40;18.60;;;;;17.84;45.69;99081.81;5050572;28;8858;-80
2023/05/23 05:07:03;;;;;;;;;22.00;21.00;;;;;17.97;45.86;99088.09;5051349;28;8850;-81
2023/05/23 05:09:32;;;;;;;;;22.80;21.60;;;;;18.27;46.12;99091.72;5017472;28;8862;-82
2023/05/23 05:12:01;;;;;;;;;20.60;18.80;;;;;18.46;45.57;99096.78;5067273;28;8996;-81
2023/05/23 05:14:31;;;;;;;;;21.40;19.40;;;;;18.73;44.76;99089.75;5051365;28;8866;-81
2023/05/23 05:17:03;;;;;;;;;21.20;20.20;;;;;18.99;44.39;99087.31;5067450;28;8987;-81
2023/05/23 05:19:49;;;;;;;;;15.00;13.60;;;;;19.23;43.75;99092.00;5020528;28;8853;-81
2023/05/23 05:22:18;;;;;;;;;20.00;20.00;;;;;19.33;43.36;99096.66;5029027;28;8833;-81
2023/05/23 05:24:47;;;;;;;;;21.60;19.60;;;;;19.49;43.32;99101.84;5028805;28;8895;-81
2023/05/23 05:27:17;;;;;;;;;19.00;18.00;;;;;19.83;42.46;99099.66;5012005;28;8905;-81
2023/05/23 05:29:46;;;;;;;;;19.00;17.60;;;;;20.22;41.88;99099.75;5017460;28;8875;-85
2023/05/23 05:32:18;;;;;;;;;19.00;18.00;;;;;20.38;40.90;99096.91;5027054;28;8884;-87
2023/05/23 05:34:49;;;;;;;;;22.80;21.20;;;;;20.56;40.45;99100.09;5045870;28;8861;-84
2023/05/23 05:37:20;;;;;;;;;18.20;18.20;;;;;20.67;40.22;99102.88;5030076;28;8852;-85
2023/05/23 05:39:49;;;;;;;;;19.80;19.80;;;;;20.79;40.38;99099.34;4996979;28;8865;-85
2023/05/23 05:42:18;;;;;;;;;21.40;20.60;;;;;20.89;40.22;99107.56;5026727;28;9862;-86
2023/05/23 05:44:49;;;;;;;;;23.00;23.00;;;;;20.96;39.66;99108.88;5011928;28;9606;-78
2023/05/23 05:47:18;;;;;;;;;25.20;23.40;;;;;21.13;39.27;99102.31;4991242;28;9024;-70
2023/05/23 05:49:49;;;;;;;;;22.20;22.00;;;;;21.25;39.29;99101.41;5027887;28;9003;-68
2023/05/23 05:52:18;;;;;;;;;21.60;19.40;;;;;21.39;38.68;99100.44;5028160;28;8860;-72
2023/05/23 05:54:47;;;;;;;;;23.00;21.00;;;;;21.55;38.79;99096.63;5027662;28;8868;-74
2023/05/23 05:57:16;;;;;;;;;19.20;18.80;;;;;21.70;38.24;99098.19;5024258;28;8852;-69
2023/05/23 05:59:45;;;;;;;;;17.00;16.00;;;;;21.81;37.54;99097.41;5032840;28;8888;-72
2023/05/23 06:02:14;;;;;;;;;23.00;20.80;;;;;22.02;37.48;99103.78;5045518;28;8892;-72
2023/05/23 06:04:43;;;;;;;;;20.40;19.20;;;;;22.16;36.92;99104.56;5062305;28;8968;-71
2023/05/23 06:07:13;;;;;;;;;14.00;14.00;;;;;22.29;36.87;99104.50;5040307;28;8871;-71
2023/05/23 06:09:43;;;;;;;;;18.40;17.40;;;;;22.41;36.57;99103.56;5047489;28;8840;-70
2023/05/23 06:12:13;;;;;;;;;17.00;16.60;;;;;22.50;36.11;99102.00;5004369;28;8870;-73
2023/05/23 06:14:43;;;;;;;;;20.60;18.60;;;;;22.60;35.41;99103.00;5018594;28;9055;-73
2023/05/23 06:17:12;;;;;;;;;20.40;19.40;;;;;22.58;35.64;99104.91;5020325;28;8888;-72
2023/05/23 06:19:43;;;;;;;;;16.40;16.40;;;;;22.70;34.19;99097.75;5018118;28;8863;-70
2023/05/23 06:22:14;;;;;;;;;16.60;15.60;;;;;22.81;34.31;99095.94;5042822;28;8834;-70
2023/05/23 06:24:43;;;;;;;;;14.40;14.00;;;;;22.86;33.79;99095.56;5026600;28;8909;-71
2023/05/23 06:27:12;;;;;;;;;15.40;14.60;;;;;22.94;34.17;99097.66;5026132;28;8835;-74
2023/05/23 06:29:41;;;;;;;;;11.80;11.00;;;;;23.07;33.34;99098.41;5026784;28;8915;-72
2023/05/23 06:32:10;;;;;;;;;13.40;12.80;;;;;23.17;33.41;99102.03;5027214;28;9626;-72
2023/05/23 06:34:39;;;;;;;;;12.60;12.60;;;;;23.33;33.27;99096.28;5024186;28;8871;-71
2023/05/23 06:37:08;;;;;;;;;14.00;14.00;;;;;23.04;32.65;99104.00;5024831;28;8846;-70
2023/05/23 06:39:38;;;;;;;;;15.60;15.00;;;;;22.93;33.25;99101.31;5027194;28;8888;-72
2023/05/23 06:42:07;;;;;;;;;17.80;16.00;;;;;22.65;33.59;99097.25;5010511;28;8847;-71
2023/05/23 06:44:52;;;;;;;;;16.80;15.20;;;;;22.80;33.50;99091.53;5062179;28;9046;-80
2023/05/23 06:47:22;;;;;;;;;17.40;15.40;;;;;22.95;33.26;99100.22;5052602;28;9664;-82
2023/05/23 06:49:51;;;;;;;;;23.75;22.50;;;;;22.78;33.54;99098.00;5078339;28;8851;-82
2023/05/23 06:52:20;;;;;;;;;19.40;19.40;;;;;23.09;33.47;99100.94;5071604;28;8864;-83
2023/05/23 06:54:51;;;;;;;;;18.80;18.40;;;;;23.35;33.47;99105.03;5032229;28;8868;-82
2023/05/23 06:57:21;;;;;;;;;20.80;20.20;;;;;23.45;32.97;99098.94;5031015;28;8876;-82
2023/05/23 06:59:50;;;;;;;;;17.20;14.20;;;;;23.64;32.72;99104.53;5047706;28;8864;-81
2023/05/23 07:02:19;;;;;;;;;17.40;16.20;;;;;23.82;32.11;99101.28;5045679;28;8880;-81
2023/05/23 07:04:48;;;;;;;;;17.00;14.60;;;;;24.01;32.43;99090.69;5022993;28;8932;-83
2023/05/23 07:07:24;;;;;;;;;15.40;15.00;;;;;24.08;32.20;99094.56;5080671;28;9721;-83
2023/05/23 07:09:55;;;;;;;;;18.00;15.20;;;;;24.20;32.13;99097.22;5067857;28;8850;-82
2023/05/23 07:12:24;;;;;;;;;20.80;19.80;;;;;24.30;32.45;99090.06;5053345;28;8870;-83
2023/05/23 07:14:53;;;;;;;;;10.80;10.80;;;;;24.39;32.05;99086.59;5071223;28;9677;-82
2023/05/23 07:17:22;;;;;;;;;17.80;17.00;;;;;24.45;31.88;99094.16;5037110;28;8846;-83
2023/05/23 07:19:51;;;;;;;;;18.00;16.00;;;;;24.06;32.83;99087.66;5074442;28;8907;-83
2023/05/23 07:22:21;;;;;;;;;18.20;17.80;;;;;24.25;32.47;99089.66;5038547;28;8849;-81
2023/05/23 07:24:50;;;;;;;;;20.75;20.75;;;;;24.16;32.67;99088.59;5032970;28;8865;-83
2023/05/23 07:27:21;;;;;;;;;17.60;16.00;;;;;23.87;33.13;99093.72;5017516;28;8897;-83
2023/05/23 07:29:50;;;;;;;;;14.80;14.80;;;;;24.14;32.56;99086.03;5033893;28;9044;-82
2023/05/23 07:32:19;;;;;;;;;17.40;17.00;;;;;24.22;32.07;99092.59;5017304;28;8996;-81
2023/05/23 07:34:49;;;;;;;;;16.60;16.40;;;;;24.29;32.23;99083.03;5036166;28;8980;-83
2023/05/23 07:37:18;;;;;;;;;17.40;17.40;;;;;24.48;31.46;99087.66;5032415;28;8858;-84
2023/05/23 07:39:47;;;;;;;;;18.80;18.80;;;;;24.68;31.82;99084.09;4986646;28;8969;-86
2023/05/23 07:42:16;;;;;;;;;16.00;16.00;;;;;24.72;31.31;99079.31;5017966;28;8850;-82
2023/05/23 07:44:46;;;;;;;;;21.40;17.20;;;;;24.10;32.76;99094.44;5017088;28;9004;-84
2023/05/23 07:47:15;;;;;;;;;17.60;17.60;;;;;22.73;34.43;99095.69;5034065;28;8858;-84
2023/05/23 07:49:46;;;;;;;;;22.60;21.80;;;;;22.32;35.14;99083.72;5032536;28;8990;-84
2023/05/23 07:52:15;;;;;;;;;17.40;17.40;;;;;22.90;34.67;99086.34;5031943;28;9023;-83
2023/05/23 07:54:44;;;;;;;;;17.40;16.40;;;;;22.78;33.95;99085.44;5036369;28;8970;-84
2023/05/23 07:57:15;;;;;;;;;15.80;15.00;;;;;22.96;33.86;99079.66;5035021;28;8864;-81
2023/05/23 07:59:46;;;;;;;;;17.00;16.20;;;;;23.46;33.87;99081.88;5068296;28;8982;-84
2023/05/23 08:02:15;;;;;;;;;16.00;14.40;;;;;23.80;33.60;99085.31;5056598;28;8831;-85
2023/05/23 08:04:45;;;;;;;;;16.60;16.20;;;;;23.27;33.51;99086.06;5048799;28;8841;-81
2023/05/23 08:07:16;;;;;;;;;16.00;16.00;;;;;23.54;33.26;99084.78;5049587;28;8886;-83
2023/05/23 08:09:51;;;;;;;;;15.60;15.60;;;;;23.72;33.41;99079.75;5049421;28;8958;-82
2023/05/23 08:12:21;;;;;;;;;18.60;17.80;;;;;23.84;33.58;99084.06;5049178;28;8884;-82
2023/05/23 08:14:59;;;;;;;;;13.60;13.60;;;;;22.98;34.96;99081.22;5024746;28;8893;-83
2023/05/23 08:17:37;;;;;;;;;19.60;19.20;;;;;22.84;35.65;99083.25;5007860;28;8866;-82
2023/05/23 08:20:08;;;;;;;;;19.20;18.40;;;;;23.43;35.81;99082.97;4991708;28;9972;-81
2023/05/23 08:22:37;;;;;;;;;21.60;21.40;;;;;23.78;35.01;99082.75;5007720;28;8933;-83
2023/05/23 08:25:07;;;;;;;;;21.40;20.60;;;;;24.11;34.72;99078.22;5007212;28;8866;-84
2023/05/23 08:27:38;;;;;;;;;23.00;22.40;;;;;24.43;33.56;99077.28;4991936;28;8862;-83
2023/05/23 08:30:33;;;;;;;;;20.80;20.20;;;;;23.81;34.89;99081.66;5007816;28;8908;-82
2023/05/23 08:33:05;;;;;;;;;18.40;18.40;;;;;24.29;34.49;99080.34;4975689;28;8862;-83
2023/05/23 08:35:36;;;;;;;;;19.00;18.40;;;;;24.60;34.34;99072.31;4992563;28;8957;-83
2023/05/23 08:38:09;;;;;;;;;18.20;16.20;;;;;24.81;33.90;99080.34;5017242;28;8959;-83
2023/05/23 08:40:50;;;;;;;;;21.80;20.60;;;;;25.07;33.07;99083.41;4994085;28;8870;-82
2023/05/23 08:43:20;;;;;;;;;19.40;18.00;;;;;25.23;32.24;99078.38;5011423;28;8961;-83
2023/05/23 08:45:52;;;;;;;;;18.80;17.80;;;;;25.34;32.44;99082.81;5013094;28;8975;-83
2023/05/23 08:48:25;;;;;;;;;22.00;19.40;;;;;25.32;32.61;99079.41;5068679;28;8861;-83
2023/05/23 08:50:53;;;;;;;;;17.80;17.80;;;;;25.09;32.61;99082.28;5052330;28;8850;-85
2023/05/23 08:53:27;;;;;;;;;20.40;20.40;;;;;24.91;33.21;99076.72;5052404;28;8858;-84
2023/05/23 08:56:03;;;;;;;;;19.20;18.00;;;;;24.42;34.75;99077.44;5070540;28;8884;-83
2023/05/23 08:58:41;;;;;;;;;19.60;19.00;;;;;23.32;35.46;99089.22;5070465;28;8872;-83
2023/05/23 09:01:13;;;;;;;;;18.80;18.80;;;;;23.78;34.46;99079.22;5070477;28;8866;-82
2023/05/23 09:03:43;;;;;;;;;17.25;17.25;;;;;24.10;33.94;99079.19;5066336;28;8866;-81
2023/05/23 09:06:21;;;;;;;;;18.80;17.60;;;;;24.39;33.11;99078.53;5049652;28;8864;-82
2023/05/23 09:08:51;;;;;;;;;18.20;18.20;;;;;23.98;33.84;99082.94;5049738;28;8859;-86
2023/05/23 09:11:23;;;;;;;;;18.80;18.80;;;;;24.35;32.89;99077.13;5049754;28;8936;-84
2023/05/23 09:13:52;;;;;;;;;17.20;16.80;;;;;24.61;31.82;99074.84;5033213;28;8873;-81
2023/05/23 09:16:24;;;;;;;;;20.00;16.60;;;;;24.87;31.15;99080.66;5049471;28;8878;-84
2023/05/23 09:18:57;;;;;;;;;16.40;15.40;;;;;24.77;30.20;99074.38;5033594;28;9539;-84
2023/05/23 09:21:32;;;;;;;;;16.60;16.60;;;;;25.09;31.25;99076.06;5049672;28;8903;-83
2023/05/23 09:24:16;;;;;;;;;20.40;20.00;;;;;25.35;30.64;99075.59;5033387;28;8867;-84
2023/05/23 09:26:47;;;;;;;;;21.40;20.40;;;;;25.43;30.20;99073.06;5065832;28;8890;-82
2023/05/23 09:29:20;;;;;;;;;15.20;14.00;;;;;25.66;29.74;99071.81;5001111;28;9100;-82
2023/05/23 09:31:50;;;;;;;;;19.40;18.40;;;;;25.54;29.27;99072.09;5051128;28;8852;-81
2023/05/23 09:34:19;;;;;;;;;21.60;20.00;;;;;25.65;29.22;99067.41;5044215;28;8874;-82
2023/05/23 09:36:49;;;;;;;;;18.40;17.60;;;;;25.71;28.12;99064.16;5069015;28;9127;-83
2023/05/23 09:39:18;;;;;;;;;17.20;17.20;;;;;25.71;28.24;99064.16;5067162;28;8898;-83
2023/05/23 09:41:48;;;;;;;;;14.00;14.00;;;;;25.59;27.71;99067.13;5067544;28;8923;-85
2023/05/23 09:44:23;;;;;;;;;19.60;17.80;;;;;25.44;27.85;99072.91;5048971;28;8864;-83
2023/05/23 09:46:53;;;;;;;;;14.80;14.80;;;;;24.63;28.13;99064.81;5049394;28;8848;-82
2023/05/23 09:49:23;;;;;;;;;17.20;15.40;;;;;23.73;29.71;99071.56;5066264;28;8828;-83
2023/05/23 09:51:58;;;;;;;;;15.60;15.60;;;;;24.52;29.15;99062.22;5049304;28;8856;-81
2023/05/23 09:54:27;;;;;;;;;15.40;15.00;;;;;24.86;29.37;99062.81;5046012;28;8842;-83
2023/05/23 09:56:59;;;;;;;;;12.20;12.20;;;;;25.11;29.00;99056.13;5045840;28;9003;-82
2023/05/23 09:59:32;;;;;;;;;17.20;16.60;;;;;25.11;27.67;99063.31;5062147;28;10218;-83
2023/05/23 10:02:03;;;;;;;;;15.00;15.00;;;;;25.19;27.30;99057.25;5045539;28;8842;-82
2023/05/23 10:04:35;;;;;;;;;13.60;13.60;;;;;25.40;28.18;99052.66;5062370;28;8861;-83
2023/05/23 10:07:13;;;;;;;;;17.60;17.20;;;;;25.59;27.66;99051.84;5012630;28;8865;-82
2023/05/23 10:09:45;;;;;;;;;14.60;14.60;;;;;25.75;27.17;99056.63;5063007;28;9774;-85
2023/05/23 10:12:43;;;;;;;;;15.80;15.80;;;;;26.04;27.33;99050.41;5057229;28;8846;-82
2023/05/23 10:15:16;;;;;;;;;17.20;16.20;;;;;26.05;26.93;99049.44;5029199;28;8858;-82
2023/05/23 10:18:01;;;;;;;;;15.40;15.00;;;;;25.99;26.69;99039.25;5029267;28;8870;-85
2023/05/23 10:20:31;;;;;;;;;15.00;15.00;;;;;25.95;26.63;99046.75;5029261;28;8845;-83
2023/05/23 10:23:01;;;;;;;;;18.20;18.20;;;;;25.86;26.84;99039.50;5048447;28;9019;-83
2023/05/23 10:25:31;;;;;;;;;14.00;14.00;;;;;26.07;26.49;99039.34;5032074;28;8872;-82
2023/05/23 10:28:00;;;;;;;;;11.60;11.60;;;;;26.17;26.08;99036.63;5043010;28;8877;-83
2023/05/23 10:30:32;;;;;;;;;18.20;18.20;;;;;26.29;26.45;99035.50;5031392;28;8861;-84
2023/05/23 10:33:05;;;;;;;;;13.00;12.40;;;;;26.27;26.08;99038.31;5047343;28;8888;-84
2023/05/23 10:35:46;;;;;;;;;14.00;14.00;;;;;24.84;26.37;99042.44;5048694;28;8962;-83
2023/05/23 10:38:28;;;;;;;;;15.80;14.40;;;;;24.00;27.41;99037.13;5070242;28;8877;-84
2023/05/23 10:41:06;;;;;;;;;17.00;17.00;;;;;24.33;27.62;99031.56;5070068;28;8962;-83
2023/05/23 10:43:44;;;;;;;;;13.80;13.80;;;;;24.31;27.91;99027.34;5072711;28;8893;-82
2023/05/23 10:46:14;;;;;;;;;14.60;14.60;;;;;24.97;28.26;99028.78;5040917;28;8839;-83
2023/05/23 10:48:45;;;;;;;;;14.40;13.00;;;;;25.38;27.35;99016.97;5076600;28;8851;-84
2023/05/23 10:51:16;;;;;;;;;13.00;11.00;;;;;25.73;26.96;99007.47;5110784;28;8820;-84
2023/05/23 10:53:46;;;;;;;;;13.00;13.00;;;;;25.74;27.70;99013.69;5075891;28;8860;-83
2023/05/23 10:56:21;;;;;;;;;13.60;12.80;;;;;26.02;26.59;99014.69;5092784;28;8898;-83
2023/05/23 10:58:53;;;;;;;;;12.80;12.40;;;;;26.28;26.37;99014.91;5109307;28;8839;-84
2023/05/23 11:01:23;;;;;;;;;13.40;13.40;;;;;26.42;25.62;99019.84;5075928;28;8851;-87
2023/05/23 11:03:54;;;;;;;;;14.20;13.60;;;;;25.17;26.61;99018.88;5042825;28;8941;-82
2023/05/23 11:06:44;;;;;;;;;14.80;14.60;;;;;25.88;26.39;99008.72;5071809;28;8908;-83
2023/05/23 11:09:17;;;;;;;;;14.40;14.40;;;;;26.05;26.02;99009.03;5081181;28;8850;-82
2023/05/23 11:12:01;;;;;;;;;13.60;12.00;;;;;25.36;26.54;98997.44;5052563;28;8847;-85
2023/05/23 11:14:51;;;;;;;;;17.00;17.00;;;;;25.16;26.48;99007.28;5052955;28;8850;-83
2023/05/23 11:17:33;;;;;;;;;13.60;13.60;;;;;25.66;26.69;99001.81;5056861;28;8882;-82
2023/05/23 11:20:06;;;;;;;;;15.60;15.60;;;;;25.45;26.28;99003.78;5076274;28;8943;-83
2023/05/23 11:22:36;;;;;;;;;12.80;12.40;;;;;25.82;26.09;98993.16;5052553;28;8873;-82
2023/05/23 11:25:08;;;;;;;;;16.60;16.00;;;;;25.79;24.95;99000.66;5052548;28;8877;-84
2023/05/23 11:27:39;;;;;;;;;15.60;15.60;;;;;25.81;25.39;98996.81;5070667;28;8854;-84
2023/05/23 11:30:12;;;;;;;;;13.40;13.40;;;;;26.50;24.28;98992.19;5052485;28;8861;-82
2023/05/23 11:32:43;;;;;;;;;12.40;11.60;;;;;26.80;23.81;98993.72;5052462;28;8858;-84
2023/05/23 11:35:16;;;;;;;;;11.80;11.80;;;;;27.17;23.08;98994.66;5016995;28;8872;-83
2023/05/23 11:37:45;;;;;;;;;11.20;10.40;;;;;27.62;22.57;98986.50;5048544;28;9029;-86
2023/05/23 11:40:31;;;;;;;;;10.00;10.00;;;;;28.10;22.09;98992.47;5021377;28;8917;-83
2023/05/23 11:43:02;;;;;;;;;11.00;11.00;;;;;28.33;21.91;98991.94;5067972;28;8910;-84